createdAt,value
2022-10-17T09:41:56.864Z,46.95
2022-10-17T10:04:47.039Z,46.08
2022-10-17T10:07:30.682Z,47.13
2022-10-17T10:10:00.350Z,45.35
2022-10-17T10:12:31.851Z,44.45
2022-10-17T10:14:59.796Z,47.03
2022-10-17T10:17:33.112Z,46.83
2022-10-17T10:20:00.854Z,46.15
2022-10-17T10:22:28.618Z,47.15
2022-10-17T10:25:12.940Z,49.80
2022-10-17T10:27:43.582Z,47.58
2022-10-17T10:30:30.244Z,48.83
2022-10-17T10:33:00.483Z,46.00
2022-10-17T10:35:35.097Z,46.97
2022-10-17T10:38:08.872Z,50.13
2022-10-17T10:40:48.092Z,49.92
2022-10-17T10:43:30.721Z,48.92
2022-10-17T10:45:59.299Z,48.03
2022-10-17T10:48:31.921Z,50.50
2022-10-17T10:51:04.533Z,49.58
2022-10-17T10:53:41.287Z,50.58
2022-10-17T10:56:18.392Z,49.83
2022-10-17T10:59:00.460Z,49.72
2022-10-17T11:02:05.601Z,44.78
2022-10-17T11:04:40.738Z,43.40
2022-10-17T11:07:30.663Z,48.60
2022-10-17T11:25:51.698Z,39.22
2022-10-17T11:28:21.854Z,40.88
2022-10-17T11:31:03.328Z,40.05
2022-10-17T11:33:57.761Z,41.13
2022-10-17T11:36:32.201Z,40.13
2022-10-17T11:39:11.410Z,43.00
2022-10-17T11:41:45.318Z,44.78
2022-10-17T11:44:39.008Z,43.25
2022-10-17T11:47:40.174Z,41.25
2022-10-17T11:54:03.088Z,44.25
2022-10-17T11:56:42.932Z,42.00
2022-10-17T11:59:30.302Z,42.47
2022-10-17T12:02:04.189Z,43.25
2022-10-17T12:04:55.205Z,40.65
2022-10-17T12:07:36.119Z,42.30
2022-10-17T12:10:03.685Z,42.65
2022-10-17T12:12:34.570Z,43.20
2022-10-17T12:15:14.180Z,43.83
2022-10-17T12:17:54.062Z,40.70
2022-10-17T12:20:21.723Z,39.70
2022-10-17T12:26:10.445Z,41.47
2022-10-17T12:28:37.814Z,40.80
2022-10-17T12:31:23.043Z,43.10
2022-10-17T12:33:57.666Z,41.22
2022-10-17T12:36:28.426Z,44.20
2022-10-17T12:39:01.953Z,44.22
2022-10-17T12:41:52.249Z,42.38
2022-10-17T12:44:22.107Z,43.88
2022-10-17T12:46:59.460Z,42.92
2022-10-17T12:49:51.978Z,42.33
2022-10-17T12:52:35.078Z,43.50
2022-10-17T12:55:13.425Z,42.35
2022-10-17T12:58:00.018Z,41.97
2022-10-17T13:01:18.982Z,41.90
2022-10-17T13:03:48.898Z,41.55
2022-10-17T13:06:22.243Z,41.30
2022-10-17T13:09:04.093Z,42.17
2022-10-17T13:11:36.171Z,42.03
2022-10-17T13:14:12.520Z,42.08
2022-10-17T13:16:51.217Z,42.70
2022-10-17T13:19:23.469Z,39.67
2022-10-17T13:22:06.777Z,39.15
2022-10-17T13:24:40.093Z,41.53
2022-10-17T13:27:24.017Z,41.78
2022-10-17T13:29:51.483Z,40.95
2022-10-17T13:32:18.957Z,41.05
2022-10-17T13:34:46.206Z,41.13
2022-10-17T13:37:15.708Z,39.40
2022-10-17T13:39:55.329Z,41.55
2022-10-17T13:42:27.695Z,40.03
2022-10-17T13:44:57.277Z,41.22
2022-10-17T13:47:32.222Z,42.78
2022-10-17T13:50:00.232Z,40.58
2022-10-17T13:52:29.968Z,41.45
2022-10-17T13:55:11.717Z,41.20
2022-10-17T13:57:42.636Z,39.65
2022-10-17T14:00:21.862Z,41.45
2022-10-17T14:02:53.368Z,39.15
2022-10-17T14:05:24.862Z,41.55
2022-10-17T14:08:23.813Z,40.65
2022-10-17T14:10:55.253Z,41.63
2022-10-17T14:13:34.664Z,40.80
2022-10-17T14:16:04.026Z,37.17
2022-10-17T14:18:37.469Z,42.92
2022-10-17T14:24:28.701Z,38.08
2022-10-17T14:26:59.576Z,39.78
2022-10-17T14:29:29.659Z,40.95
2022-10-17T14:32:04.038Z,41.38
2022-10-17T14:34:35.681Z,39.15
2022-10-17T14:37:10.125Z,39.33
2022-10-17T14:39:38.004Z,38.15
2022-10-17T14:42:05.548Z,37.90
2022-10-17T14:44:35.311Z,38.45
2022-10-17T14:47:30.724Z,38.13
2022-10-17T14:51:04.003Z,38.08
2022-10-17T14:53:31.814Z,37.75
2022-10-17T14:56:02.638Z,35.95
2022-10-17T14:58:34.176Z,39.08
2022-10-17T15:01:02.664Z,39.50
2022-10-17T15:03:31.958Z,37.60
2022-10-17T15:06:18.834Z,37.35
2022-10-17T15:08:46.197Z,38.05
2022-10-17T15:11:13.459Z,35.42
2022-10-17T15:13:45.425Z,34.95
2022-10-17T15:16:18.476Z,35.67
2022-10-17T15:18:46.074Z,36.33
2022-10-17T15:21:26.241Z,35.22
2022-10-17T15:24:02.063Z,35.60
2022-10-17T15:26:34.130Z,36.17
2022-10-17T15:29:01.865Z,37.10
2022-10-17T15:31:31.217Z,36.05
2022-10-17T15:33:58.532Z,33.88
2022-10-17T15:36:28.486Z,30.80
2022-10-17T15:38:59.181Z,32.65
2022-10-17T15:41:29.325Z,31.15
2022-10-17T15:43:57.020Z,31.08
2022-10-17T15:46:27.061Z,31.85
2022-10-17T15:48:55.602Z,30.35
2022-10-17T15:51:23.859Z,30.33
2022-10-17T15:53:51.148Z,28.52
2022-10-17T15:59:15.362Z,27.33
2022-10-17T16:01:42.750Z,27.80
2022-10-17T16:04:14.636Z,27.40
2022-10-17T16:06:42.989Z,28.90
2022-10-17T16:27:58.806Z,28.10
2022-10-17T16:30:34.003Z,28.33
2022-10-17T16:33:04.645Z,28.63
2022-10-17T16:35:37.768Z,29.55
2022-10-17T16:38:06.726Z,28.55
2022-10-17T16:40:34.307Z,28.30
2022-10-17T16:43:01.577Z,27.85
2022-10-17T16:45:29.024Z,27.50
2022-10-17T16:47:56.355Z,29.30
2022-10-17T16:50:24.353Z,29.88
2022-10-17T16:52:51.673Z,29.58
2022-10-17T16:55:19.360Z,30.90
2022-10-17T16:57:49.343Z,29.13
2022-10-17T17:00:18.117Z,31.40
2022-10-17T17:02:49.532Z,28.33
2022-10-17T17:05:17.330Z,31.52
2022-10-17T17:07:47.974Z,24.48
2022-10-17T17:10:15.642Z,37.10
2022-10-17T17:15:10.433Z,37.20
2022-10-17T17:17:55.311Z,34.28
2022-10-17T17:20:36.343Z,30.42
2022-10-17T17:23:20.599Z,33.70
2022-10-17T17:26:00.406Z,35.60
2022-10-17T17:30:55.602Z,39.03
2022-10-17T17:33:29.730Z,38.42
2022-10-17T17:35:59.994Z,39.53
2022-10-17T17:38:32.383Z,39.05
2022-10-17T17:41:00.553Z,39.53
2022-10-17T17:43:28.498Z,40.95
2022-10-17T17:45:56.180Z,40.28
2022-10-17T17:48:23.461Z,41.30
2022-10-17T17:50:50.705Z,39.78
2022-10-17T17:53:18.430Z,41.42
2022-10-17T17:55:45.738Z,39.75
2022-10-17T17:58:13.207Z,38.97
2022-10-17T18:00:40.925Z,40.67
2022-10-17T18:03:08.297Z,39.03
2022-10-17T18:05:35.602Z,37.80
2022-10-17T18:08:04.793Z,37.30
2022-10-17T18:10:32.085Z,38.50
2022-10-17T18:12:59.255Z,36.95
2022-10-17T18:15:26.688Z,36.75
2022-10-17T18:17:53.853Z,37.53
2022-10-17T18:20:21.135Z,37.03
2022-10-17T18:22:48.410Z,35.75
